sensor_id;sensor_type;location;lat;lon;timestamp;pressure;altitude;pressure_sealevel;temperature;humidity
24666;BME280;29726;53.532;-1.478;2023-03-04T00:00:36;102134.56;;;11.13;100.00
24666;BME280;29726;53.532;-1.478;2023-03-04T00:03:19;102143.69;;;11.17;100.00
24666;BME280;29726;53.532;-1.478;2023-03-04T00:06:04;102134.56;;;11.13;100.00
24666;BME280;29726;53.532;-1.478;2023-03-04T00:08:48;102148.06;;;11.18;100.00
24666;BME280;29726;53.532;-1.478;2023-03-04T00:11:32;102150.06;;;11.17;100.00
24666;BME280;29726;53.532;-1.478;2023-03-04T00:14:16;102143.84;;;11.10;100.00
24666;BME280;29726;53.532;-1.478;2023-03-04T00:17:00;102154.06;;;11.16;100.00
24666;BME280;29726;53.532;-1.478;2023-03-04T00:19:47;102155.31;;;11.15;100.00
24666;BME280;29726;53.532;-1.478;2023-03-04T00:22:31;102158.50;;;11.14;100.00
24666;BME280;29726;53.532;-1.478;2023-03-04T00:25:15;102156.94;;;11.13;100.00
24666;BME280;29726;53.532;-1.478;2023-03-04T00:27:58;102140.69;;;11.08;100.00
24666;BME280;29726;53.532;-1.478;2023-03-04T00:30:43;102153.88;;;11.07;100.00
24666;BME280;29726;53.532;-1.478;2023-03-04T00:33:27;102157.81;;;11.10;100.00
24666;BME280;29726;53.532;-1.478;2023-03-04T00:36:11;102155.00;;;11.10;100.00
24666;BME280;29726;53.532;-1.478;2023-03-04T00:38:55;102163.75;;;11.12;100.00
24666;BME280;29726;53.532;-1.478;2023-03-04T00:41:39;102160.53;;;11.13;100.00
24666;BME280;29726;53.532;-1.478;2023-03-04T00:44:23;102163.41;;;11.10;100.00
24666;BME280;29726;53.532;-1.478;2023-03-04T00:47:07;102153.59;;;11.02;100.00
24666;BME280;29726;53.532;-1.478;2023-03-04T00:49:51;102161.03;;;11.08;100.00
24666;BME280;29726;53.532;-1.478;2023-03-04T00:52:35;102150.38;;;11.03;100.00
24666;BME280;29726;53.532;-1.478;2023-03-04T00:55:19;102160.69;;;11.06;100.00
24666;BME280;29726;53.532;-1.478;2023-03-04T00:58:03;102151.16;;;11.04;100.00
24666;BME280;29726;53.532;-1.478;2023-03-04T01:00:47;102144.50;;;10.98;100.00
24666;BME280;29726;53.532;-1.478;2023-03-04T01:03:31;102155.97;;;11.03;100.00
24666;BME280;29726;53.532;-1.478;2023-03-04T01:06:15;102152.78;;;11.01;100.00
24666;BME280;29726;53.532;-1.478;2023-03-04T01:09:00;102166.69;;;11.05;100.00
24666;BME280;29726;53.532;-1.478;2023-03-04T01:11:44;102168.72;;;11.04;100.00
24666;BME280;29726;53.532;-1.478;2023-03-04T01:14:28;102161.16;;;11.01;100.00
24666;BME280;29726;53.532;-1.478;2023-03-04T01:17:12;102155.22;;;10.99;100.00
24666;BME280;29726;53.532;-1.478;2023-03-04T01:19:56;102165.56;;;11.02;100.00
24666;BME280;29726;53.532;-1.478;2023-03-04T01:22:40;102155.22;;;10.99;100.00
24666;BME280;29726;53.532;-1.478;2023-03-04T01:25:24;102153.22;;;11.00;100.00
24666;BME280;29726;53.532;-1.478;2023-03-04T01:28:08;102156.03;;;11.00;100.00
24666;BME280;29726;53.532;-1.478;2023-03-04T01:30:52;102152.06;;;10.97;100.00
24666;BME280;29726;53.532;-1.478;2023-03-04T01:33:36;102148.06;;;10.98;100.00
24666;BME280;29726;53.532;-1.478;2023-03-04T01:36:20;102139.06;;;10.91;100.00
24666;BME280;29726;53.532;-1.478;2023-03-04T01:39:04;102150.09;;;10.98;100.00
24666;BME280;29726;53.532;-1.478;2023-03-04T01:41:48;102143.78;;;10.94;100.00
24666;BME280;29726;53.532;-1.478;2023-03-04T01:44:32;102147.28;;;10.98;100.00
24666;BME280;29726;53.532;-1.478;2023-03-04T01:47:17;102150.50;;;10.96;100.00
24666;BME280;29726;53.532;-1.478;2023-03-04T01:50:04;102133.72;;;10.96;100.00
24666;BME280;29726;53.532;-1.478;2023-03-04T01:52:50;102142.56;;;10.95;100.00
24666;BME280;29726;53.532;-1.478;2023-03-04T01:55:34;102133.81;;;10.93;100.00
24666;BME280;29726;53.532;-1.478;2023-03-04T01:58:18;102128.66;;;10.91;100.00
24666;BME280;29726;53.532;-1.478;2023-03-04T02:01:03;102124.00;;;10.85;100.00
24666;BME280;29726;53.532;-1.478;2023-03-04T02:03:47;102127.06;;;10.90;100.00
24666;BME280;29726;53.532;-1.478;2023-03-04T02:06:31;102127.88;;;10.91;100.00
24666;BME280;29726;53.532;-1.478;2023-03-04T02:09:17;102117.63;;;10.84;100.00
24666;BME280;29726;53.532;-1.478;2023-03-04T02:12:01;102122.88;;;10.82;100.00
24666;BME280;29726;53.532;-1.478;2023-03-04T02:14:45;102123.63;;;10.83;100.00
24666;BME280;29726;53.532;-1.478;2023-03-04T02:17:31;102130.75;;;10.87;100.00
24666;BME280;29726;53.532;-1.478;2023-03-04T02:23:34;102115.75;;;10.78;100.00
24666;BME280;29726;53.532;-1.478;2023-03-04T02:26:22;102131.59;;;10.84;100.00
24666;BME280;29726;53.532;-1.478;2023-03-04T02:29:09;102130.03;;;10.83;100.00
24666;BME280;29726;53.532;-1.478;2023-03-04T02:31:54;102129.31;;;10.79;100.00
24666;BME280;29726;53.532;-1.478;2023-03-04T02:34:50;102121.41;;;10.74;100.00
24666;BME280;29726;53.532;-1.478;2023-03-04T02:37:34;102120.56;;;10.77;100.00
24666;BME280;29726;53.532;-1.478;2023-03-04T02:40:23;102122.94;;;10.79;100.00
24666;BME280;29726;53.532;-1.478;2023-03-04T02:43:10;102112.97;;;10.78;100.00
24666;BME280;29726;53.532;-1.478;2023-03-04T02:45:54;102108.66;;;10.73;100.00
24666;BME280;29726;53.532;-1.478;2023-03-04T02:48:38;102111.41;;;10.77;100.00
24666;BME280;29726;53.532;-1.478;2023-03-04T02:51:22;102111.09;;;10.71;100.00
24666;BME280;29726;53.532;-1.478;2023-03-04T02:54:21;102109.47;;;10.74;100.00
24666;BME280;29726;53.532;-1.478;2023-03-04T02:57:08;102107.44;;;10.74;100.00
24666;BME280;29726;53.532;-1.478;2023-03-04T02:59:52;102113.47;;;10.73;100.00
24666;BME280;29726;53.532;-1.478;2023-03-04T03:02:36;102106.72;;;10.70;100.00
24666;BME280;29726;53.532;-1.478;2023-03-04T03:05:20;102096.44;;;10.67;100.00
24666;BME280;29726;53.532;-1.478;2023-03-04T03:08:04;102102.38;;;10.69;100.00
24666;BME280;29726;53.532;-1.478;2023-03-04T03:10:48;102098.84;;;10.65;100.00
24666;BME280;29726;53.532;-1.478;2023-03-04T03:13:32;102101.59;;;10.69;100.00
24666;BME280;29726;53.532;-1.478;2023-03-04T03:16:16;102103.22;;;10.66;100.00
24666;BME280;29726;53.532;-1.478;2023-03-04T03:19:00;102104.00;;;10.67;100.00
24666;BME280;29726;53.532;-1.478;2023-03-04T03:21:44;102094.50;;;10.64;100.00
24666;BME280;29726;53.532;-1.478;2023-03-04T03:24:28;102103.66;;;10.65;100.00
24666;BME280;29726;53.532;-1.478;2023-03-04T03:27:11;102090.53;;;10.62;100.00
24666;BME280;29726;53.532;-1.478;2023-03-04T03:29:56;102093.69;;;10.64;100.00
24666;BME280;29726;53.532;-1.478;2023-03-04T03:32:40;102096.94;;;10.62;100.00
24666;BME280;29726;53.532;-1.478;2023-03-04T03:35:24;102087.84;;;10.58;100.00
24666;BME280;29726;53.532;-1.478;2023-03-04T03:38:08;102083.38;;;10.61;100.00
24666;BME280;29726;53.532;-1.478;2023-03-04T03:40:52;102081.50;;;10.54;100.00
24666;BME280;29726;53.532;-1.478;2023-03-04T03:43:36;102082.66;;;10.57;100.00
24666;BME280;29726;53.532;-1.478;2023-03-04T03:46:20;102079.09;;;10.56;100.00
24666;BME280;29726;53.532;-1.478;2023-03-04T03:49:04;102080.28;;;10.55;100.00
24666;BME280;29726;53.532;-1.478;2023-03-04T03:51:48;102062.81;;;10.51;100.00
24666;BME280;29726;53.532;-1.478;2023-03-04T03:54:32;102066.78;;;10.54;100.00
24666;BME280;29726;53.532;-1.478;2023-03-04T03:57:16;102056.53;;;10.47;100.00
24666;BME280;29726;53.532;-1.478;2023-03-04T04:00:00;102058.81;;;10.52;100.00
24666;BME280;29726;53.532;-1.478;2023-03-04T04:02:44;102065.97;;;10.53;100.00
24666;BME280;29726;53.532;-1.478;2023-03-04T04:05:28;102054.97;;;10.46;100.00
24666;BME280;29726;53.532;-1.478;2023-03-04T04:08:15;102062.06;;;10.51;100.00
24666;BME280;29726;53.532;-1.478;2023-03-04T04:10:59;102033.41;;;10.27;100.00
24666;BME280;29726;53.532;-1.478;2023-03-04T04:13:43;102070.84;;;10.49;100.00
24666;BME280;29726;53.532;-1.478;2023-03-04T04:16:27;102070.53;;;10.44;100.00
24666;BME280;29726;53.532;-1.478;2023-03-04T04:19:16;102067.69;;;10.47;100.00
24666;BME280;29726;53.532;-1.478;2023-03-04T04:22:01;102071.28;;;10.48;100.00
24666;BME280;29726;53.532;-1.478;2023-03-04T04:24:46;102070.13;;;10.45;100.00
24666;BME280;29726;53.532;-1.478;2023-03-04T04:27:31;102069.38;;;10.45;100.00
24666;BME280;29726;53.532;-1.478;2023-03-04T04:30:15;102066.69;;;10.38;100.00
24666;BME280;29726;53.532;-1.478;2023-03-04T04:33:00;102072.63;;;10.40;100.00
24666;BME280;29726;53.532;-1.478;2023-03-04T04:35:44;102075.78;;;10.42;100.00
24666;BME280;29726;53.532;-1.478;2023-03-04T04:38:28;102061.56;;;10.36;100.00
24666;BME280;29726;53.532;-1.478;2023-03-04T04:41:21;102073.44;;;10.40;100.00
24666;BME280;29726;53.532;-1.478;2023-03-04T04:44:06;102069.56;;;10.34;100.00
24666;BME280;29726;53.532;-1.478;2023-03-04T04:46:51;102070.69;;;10.37;100.00
24666;BME280;29726;53.532;-1.478;2023-03-04T04:49:35;102073.94;;;10.35;100.00
24666;BME280;29726;53.532;-1.478;2023-03-04T04:52:19;102075.50;;;10.36;100.00
24666;BME280;29726;53.532;-1.478;2023-03-04T04:55:03;102057.66;;;10.30;100.00
24666;BME280;29726;53.532;-1.478;2023-03-04T04:57:47;102063.97;;;10.34;100.00
24666;BME280;29726;53.532;-1.478;2023-03-04T05:00:31;102069.56;;;10.34;100.00
24666;BME280;29726;53.532;-1.478;2023-03-04T05:03:15;102057.25;;;10.32;100.00
24666;BME280;29726;53.532;-1.478;2023-03-04T05:06:00;102056.16;;;10.26;100.00
24666;BME280;29726;53.532;-1.478;2023-03-04T05:08:44;102058.50;;;10.27;100.00
24666;BME280;29726;53.532;-1.478;2023-03-04T05:11:28;102063.69;;;10.29;100.00
24666;BME280;29726;53.532;-1.478;2023-03-04T05:14:12;102063.25;;;10.30;100.00
24666;BME280;29726;53.532;-1.478;2023-03-04T05:16:56;102040.13;;;10.10;100.00
24666;BME280;29726;53.532;-1.478;2023-03-04T05:19:40;102063.75;;;10.25;100.00
24666;BME280;29726;53.532;-1.478;2023-03-04T05:22:25;102069.75;;;10.24;100.00
24666;BME280;29726;53.532;-1.478;2023-03-04T05:25:09;102074.91;;;10.25;100.00
24666;BME280;29726;53.532;-1.478;2023-03-04T05:27:53;102072.13;;;10.25;100.00
24666;BME280;29726;53.532;-1.478;2023-03-04T05:30:42;102077.69;;;10.25;100.00
24666;BME280;29726;53.532;-1.478;2023-03-04T05:33:26;102071.34;;;10.25;100.00
24666;BME280;29726;53.532;-1.478;2023-03-04T05:36:10;102063.03;;;10.21;100.00
24666;BME280;29726;53.532;-1.478;2023-03-04T05:38:55;102072.19;;;10.22;100.00
24666;BME280;29726;53.532;-1.478;2023-03-04T05:41:38;102073.09;;;10.15;100.00
24666;BME280;29726;53.532;-1.478;2023-03-04T05:44:22;102076.19;;;10.21;100.00
24666;BME280;29726;53.532;-1.478;2023-03-04T05:47:06;102075.03;;;10.18;100.00
24666;BME280;29726;53.532;-1.478;2023-03-04T05:49:50;102066.00;;;10.11;100.00
24666;BME280;29726;53.532;-1.478;2023-03-04T05:52:34;102073.88;;;10.16;100.00
24666;BME280;29726;53.532;-1.478;2023-03-04T05:55:18;102069.09;;;10.16;100.00
24666;BME280;29726;53.532;-1.478;2023-03-04T05:58:03;102074.69;;;10.16;100.00
24666;BME280;29726;53.532;-1.478;2023-03-04T06:00:47;102066.38;;;10.13;100.00
24666;BME280;29726;53.532;-1.478;2023-03-04T06:03:31;102078.69;;;10.15;100.00
24666;BME280;29726;53.532;-1.478;2023-03-04T06:06:15;102082.25;;;10.16;100.00
24666;BME280;29726;53.532;-1.478;2023-03-04T06:09:00;102081.13;;;10.13;100.00
24666;BME280;29726;53.532;-1.478;2023-03-04T06:11:44;102089.91;;;10.12;100.00
24666;BME280;29726;53.532;-1.478;2023-03-04T06:14:28;102084.38;;;10.08;100.00
24666;BME280;29726;53.532;-1.478;2023-03-04T06:17:12;102086.34;;;10.11;100.00
24666;BME280;29726;53.532;-1.478;2023-03-04T06:19:56;102088.34;;;10.11;100.00
24666;BME280;29726;53.532;-1.478;2023-03-04T06:22:40;102090.34;;;10.10;100.00
24666;BME280;29726;53.532;-1.478;2023-03-04T06:25:25;102082.81;;;10.07;100.00
24666;BME280;29726;53.532;-1.478;2023-03-04T06:28:09;102060.00;;;9.89;100.00
24666;BME280;29726;53.532;-1.478;2023-03-04T06:30:54;102083.59;;;10.08;100.00
24666;BME280;29726;53.532;-1.478;2023-03-04T06:33:38;102052.91;;;9.85;100.00
24666;BME280;29726;53.532;-1.478;2023-03-04T06:36:23;102084.47;;;10.05;100.00
24666;BME280;29726;53.532;-1.478;2023-03-04T06:39:08;102085.34;;;9.98;100.00
24666;BME280;29726;53.532;-1.478;2023-03-04T06:41:52;102059.69;;;9.84;100.00
24666;BME280;29726;53.532;-1.478;2023-03-04T06:44:36;102093.25;;;10.03;100.00
24666;BME280;29726;53.532;-1.478;2023-03-04T06:47:20;102064.91;;;9.82;100.00
24666;BME280;29726;53.532;-1.478;2023-03-04T06:50:05;102104.44;;;10.00;100.00
24666;BME280;29726;53.532;-1.478;2023-03-04T06:52:50;102107.28;;;9.96;100.00
24666;BME280;29726;53.532;-1.478;2023-03-04T06:55:34;102102.06;;;9.98;100.00
24666;BME280;29726;53.532;-1.478;2023-03-04T06:58:19;102070.91;;;9.81;100.00
24666;BME280;29726;53.532;-1.478;2023-03-04T07:01:15;102118.00;;;10.01;100.00
24666;BME280;29726;53.532;-1.478;2023-03-04T07:04:00;102115.25;;;9.98;100.00
24666;BME280;29726;53.532;-1.478;2023-03-04T07:06:43;102116.03;;;9.98;100.00
24666;BME280;29726;53.532;-1.478;2023-03-04T07:09:27;102111.66;;;9.97;100.00
24666;BME280;29726;53.532;-1.478;2023-03-04T07:12:12;102109.72;;;9.94;100.00
24666;BME280;29726;53.532;-1.478;2023-03-04T07:14:56;102114.09;;;9.95;100.00
24666;BME280;29726;53.532;-1.478;2023-03-04T07:17:40;102124.03;;;9.96;100.00
24666;BME280;29726;53.532;-1.478;2023-03-04T07:20:24;102128.81;;;9.96;100.00
24666;BME280;29726;53.532;-1.478;2023-03-04T07:23:08;102130.03;;;9.95;100.00
24666;BME280;29726;53.532;-1.478;2023-03-04T07:25:52;102097.34;;;9.73;100.00
24666;BME280;29726;53.532;-1.478;2023-03-04T07:28:36;102124.53;;;9.91;100.00
24666;BME280;29726;53.532;-1.478;2023-03-04T07:34:12;102123.78;;;9.88;100.00
24666;BME280;29726;53.532;-1.478;2023-03-04T07:36:56;102129.28;;;9.91;100.00
24666;BME280;29726;53.532;-1.478;2023-03-04T07:39:41;102134.47;;;9.92;100.00
24666;BME280;29726;53.532;-1.478;2023-03-04T07:42:24;102141.25;;;9.91;100.00
24666;BME280;29726;53.532;-1.478;2023-03-04T07:45:09;102134.50;;;9.89;100.00
24666;BME280;29726;53.532;-1.478;2023-03-04T07:47:53;102138.47;;;9.91;100.00
24666;BME280;29726;53.532;-1.478;2023-03-04T07:50:37;102134.88;;;9.91;100.00
24666;BME280;29726;53.532;-1.478;2023-03-04T07:53:21;102143.25;;;9.91;100.00
24666;BME280;29726;53.532;-1.478;2023-03-04T07:56:07;102141.25;;;9.91;100.00
24666;BME280;29726;53.532;-1.478;2023-03-04T07:58:51;102134.94;;;9.88;100.00
24666;BME280;29726;53.532;-1.478;2023-03-04T08:01:37;102132.56;;;9.86;100.00
24666;BME280;29726;53.532;-1.478;2023-03-04T08:04:21;102138.88;;;9.90;100.00
24666;BME280;29726;53.532;-1.478;2023-03-04T08:07:05;102126.69;;;9.81;100.00
24666;BME280;29726;53.532;-1.478;2023-03-04T08:09:49;102130.59;;;9.87;100.00
24666;BME280;29726;53.532;-1.478;2023-03-04T08:12:34;102120.25;;;9.83;100.00
24666;BME280;29726;53.532;-1.478;2023-03-04T08:15:19;102104.53;;;9.70;100.00
24666;BME280;29726;53.532;-1.478;2023-03-04T08:18:03;102134.09;;;9.90;100.00
24666;BME280;29726;53.532;-1.478;2023-03-04T08:20:47;102117.47;;;9.83;100.00
24666;BME280;29726;53.532;-1.478;2023-03-04T08:23:31;102129.75;;;9.89;100.00
24666;BME280;29726;53.532;-1.478;2023-03-04T08:26:21;102125.78;;;9.87;100.00
24666;BME280;29726;53.532;-1.478;2023-03-04T08:29:07;102134.88;;;9.91;100.00
24666;BME280;29726;53.532;-1.478;2023-03-04T08:31:53;102130.09;;;9.91;100.00
24666;BME280;29726;53.532;-1.478;2023-03-04T08:34:38;102130.09;;;9.91;100.00
24666;BME280;29726;53.532;-1.478;2023-03-04T08:37:23;102126.59;;;9.88;100.00
24666;BME280;29726;53.532;-1.478;2023-03-04T08:40:08;102112.69;;;9.84;100.00
24666;BME280;29726;53.532;-1.478;2023-03-04T08:42:52;102120.59;;;9.85;100.00
24666;BME280;29726;53.532;-1.478;2023-03-04T08:45:36;102122.59;;;9.88;100.00
24666;BME280;29726;53.532;-1.478;2023-03-04T08:48:21;102130.09;;;9.91;100.00
24666;BME280;29726;53.532;-1.478;2023-03-04T08:51:07;102134.47;;;9.92;100.00
24666;BME280;29726;53.532;-1.478;2023-03-04T08:53:52;102124.22;;;9.86;100.00
24666;BME280;29726;53.532;-1.478;2023-03-04T08:56:37;102124.16;;;9.89;100.00
24666;BME280;29726;53.532;-1.478;2023-03-04T08:59:21;102118.56;;;9.89;100.00
24666;BME280;29726;53.532;-1.478;2023-03-04T09:02:05;102119.72;;;9.92;100.00
24666;BME280;29726;53.532;-1.478;2023-03-04T09:04:49;102115.78;;;9.89;100.00
24666;BME280;29726;53.532;-1.478;2023-03-04T09:07:33;102120.50;;;9.92;100.00
24666;BME280;29726;53.532;-1.478;2023-03-04T09:10:17;102105.09;;;9.84;100.00
24666;BME280;29726;53.532;-1.478;2023-03-04T09:13:02;102116.56;;;9.90;100.00
24666;BME280;29726;53.532;-1.478;2023-03-04T09:15:48;102123.22;;;9.96;100.00
24666;BME280;29726;53.532;-1.478;2023-03-04T09:18:33;102125.25;;;9.95;100.00
24666;BME280;29726;53.532;-1.478;2023-03-04T09:21:16;102129.63;;;9.96;100.00
24666;BME280;29726;53.532;-1.478;2023-03-04T09:24:00;102123.31;;;9.92;100.00
24666;BME280;29726;53.532;-1.478;2023-03-04T09:26:49;102132.44;;;9.93;100.00
24666;BME280;29726;53.532;-1.478;2023-03-04T09:29:33;102137.19;;;9.96;100.00
24666;BME280;29726;53.532;-1.478;2023-03-04T09:32:17;102130.50;;;9.90;100.00
24666;BME280;29726;53.532;-1.478;2023-03-04T09:35:02;102100.13;;;9.73;100.00
24666;BME280;29726;53.532;-1.478;2023-03-04T09:37:47;102129.66;;;9.93;100.00
24666;BME280;29726;53.532;-1.478;2023-03-04T09:40:42;102141.13;;;10.02;100.00
24666;BME280;29726;53.532;-1.478;2023-03-04T09:43:27;102135.97;;;9.97;100.00
24666;BME280;29726;53.532;-1.478;2023-03-04T09:46:15;102143.47;;;10.03;100.00
24666;BME280;29726;53.532;-1.478;2023-03-04T09:49:02;102140.25;;;10.05;100.00
24666;BME280;29726;53.532;-1.478;2023-03-04T09:51:56;102126.41;;;9.98;100.00
24666;BME280;29726;53.532;-1.478;2023-03-04T09:55:17;102130.72;;;10.02;100.00
24666;BME280;29726;53.532;-1.478;2023-03-04T10:03:59;102116.78;;;10.02;100.00
24666;BME280;29726;53.532;-1.478;2023-03-04T10:06:46;102124.28;;;10.05;100.00
24666;BME280;29726;53.532;-1.478;2023-03-04T10:09:45;102130.25;;;10.07;100.00
24666;BME280;29726;53.532;-1.478;2023-03-04T10:12:33;102130.63;;;10.09;100.00
24666;BME280;29726;53.532;-1.478;2023-03-04T10:15:34;102120.25;;;10.10;100.00
24666;BME280;29726;53.532;-1.478;2023-03-04T10:18:23;102104.41;;;10.03;100.00
24666;BME280;29726;53.532;-1.478;2023-03-04T10:21:25;102116.22;;;10.11;100.00
24666;BME280;29726;53.532;-1.478;2023-03-04T10:24:15;102101.94;;;10.09;100.00
24666;BME280;29726;53.532;-1.478;2023-03-04T10:27:05;102111.47;;;10.11;100.00
24666;BME280;29726;53.532;-1.478;2023-03-04T10:29:49;102104.31;;;10.10;100.00
24666;BME280;29726;53.532;-1.478;2023-03-04T10:32:34;102108.22;;;10.13;100.00
24666;BME280;29726;53.532;-1.478;2023-03-04T10:35:20;102102.72;;;10.09;100.00
24666;BME280;29726;53.532;-1.478;2023-03-04T10:38:07;102105.78;;;10.15;100.00
24666;BME280;29726;53.532;-1.478;2023-03-04T10:40:52;102106.59;;;10.15;100.00
24666;BME280;29726;53.532;-1.478;2023-03-04T10:43:36;102078.19;;;9.97;100.00
24666;BME280;29726;53.532;-1.478;2023-03-04T10:46:20;102114.13;;;10.18;100.00
24666;BME280;29726;53.532;-1.478;2023-03-04T10:49:04;102105.75;;;10.18;100.00
24666;BME280;29726;53.532;-1.478;2023-03-04T10:51:52;102104.88;;;10.21;100.00
24666;BME280;29726;53.532;-1.478;2023-03-04T10:54:46;102077.31;;;10.04;100.00
24666;BME280;29726;53.532;-1.478;2023-03-04T10:57:37;102096.22;;;10.16;100.00
24666;BME280;29726;53.532;-1.478;2023-03-04T11:00:28;102104.38;;;10.26;100.00
24666;BME280;29726;53.532;-1.478;2023-03-04T11:06:20;102103.19;;;10.27;100.00
24666;BME280;29726;53.532;-1.478;2023-03-04T11:09:05;102098.31;;;10.31;100.00
24666;BME280;29726;53.532;-1.478;2023-03-04T11:11:52;102096.47;;;10.25;100.00
24666;BME280;29726;53.532;-1.478;2023-03-04T11:14:40;102097.47;;;10.34;100.00
24666;BME280;29726;53.532;-1.478;2023-03-04T11:17:51;102091.81;;;10.38;100.00
24666;BME280;29726;53.532;-1.478;2023-03-04T11:20:41;102086.59;;;10.40;100.00
24666;BME280;29726;53.532;-1.478;2023-03-04T11:23:49;102083.38;;;10.41;100.00
24666;BME280;29726;53.532;-1.478;2023-03-04T11:26:40;102043.13;;;10.19;100.00
24666;BME280;29726;53.532;-1.478;2023-03-04T11:32:36;102062.13;;;10.47;100.00
24666;BME280;29726;53.532;-1.478;2023-03-04T11:35:32;102061.25;;;10.50;100.00
24666;BME280;29726;53.532;-1.478;2023-03-04T11:38:20;102055.66;;;10.50;100.00
24666;BME280;29726;53.532;-1.478;2023-03-04T11:41:13;102047.59;;;10.56;100.00
24666;BME280;29726;53.532;-1.478;2023-03-04T11:44:05;102051.53;;;10.58;100.00
24666;BME280;29726;53.532;-1.478;2023-03-04T11:56:38;102030.53;;;10.70;100.00
24666;BME280;29726;53.532;-1.478;2023-03-04T11:59:37;102026.44;;;10.74;100.00
24666;BME280;29726;53.532;-1.478;2023-03-04T12:02:42;102008.91;;;10.74;100.00
24666;BME280;29726;53.532;-1.478;2023-03-04T12:08:36;102014.25;;;10.84;100.00
24666;BME280;29726;53.532;-1.478;2023-03-04T12:21:32;102006.28;;;11.02;100.00
24666;BME280;29726;53.532;-1.478;2023-03-04T12:24:33;102004.97;;;11.07;100.00
24666;BME280;29726;53.532;-1.478;2023-03-04T12:28:20;102005.66;;;11.11;100.00
24666;BME280;29726;53.532;-1.478;2023-03-04T12:30:58;101989.63;;;11.15;100.00
24666;BME280;29726;53.532;-1.478;2023-03-04T12:36:42;101997.72;;;11.25;100.00
24666;BME280;29726;53.532;-1.478;2023-03-04T12:39:40;101998.00;;;11.31;100.00
24666;BME280;29726;53.532;-1.478;2023-03-04T12:45:22;101985.84;;;11.37;100.00
24666;BME280;29726;53.532;-1.478;2023-03-04T12:48:26;101985.84;;;11.37;100.00
24666;BME280;29726;53.532;-1.478;2023-03-04T12:54:38;102006.13;;;11.41;100.00
24666;BME280;29726;53.532;-1.478;2023-03-04T12:57:24;101990.84;;;11.46;100.00
24666;BME280;29726;53.532;-1.478;2023-03-04T13:00:24;101985.59;;;11.48;100.00
24666;BME280;29726;53.532;-1.478;2023-03-04T13:06:45;101972.22;;;11.55;100.00
24666;BME280;29726;53.532;-1.478;2023-03-04T13:09:55;101955.78;;;11.41;100.00
24666;BME280;29726;53.532;-1.478;2023-03-04T13:15:37;101955.72;;;11.61;100.00
24666;BME280;29726;53.532;-1.478;2023-03-04T13:18:33;101951.84;;;11.70;100.00
24666;BME280;29726;53.532;-1.478;2023-03-04T13:21:27;101964.06;;;11.76;100.00
24666;BME280;29726;53.532;-1.478;2023-03-04T13:24:44;101958.81;;;11.78;100.00
24666;BME280;29726;53.532;-1.478;2023-03-04T13:27:47;101959.28;;;11.77;100.00
24666;BME280;29726;53.532;-1.478;2023-03-04T13:36:25;101945.00;;;11.87;100.00
24666;BME280;29726;53.532;-1.478;2023-03-04T13:42:03;101938.63;;;11.87;100.00
24666;BME280;29726;53.532;-1.478;2023-03-04T13:44:57;101937.56;;;11.97;100.00
24666;BME280;29726;53.532;-1.478;2023-03-04T13:47:43;101952.31;;;11.97;100.00
24666;BME280;29726;53.532;-1.478;2023-03-04T13:50:33;101938.78;;;11.96;100.00
24666;BME280;29726;53.532;-1.478;2023-03-04T13:53:29;101942.59;;;12.02;100.00
24666;BME280;29726;53.532;-1.478;2023-03-04T13:59:23;101950.44;;;12.07;100.00
24666;BME280;29726;53.532;-1.478;2023-03-04T14:02:18;101948.78;;;12.09;100.00
24666;BME280;29726;53.532;-1.478;2023-03-04T14:05:05;101936.78;;;12.09;100.00
24666;BME280;29726;53.532;-1.478;2023-03-04T14:07:48;101941.16;;;12.10;100.00
24666;BME280;29726;53.532;-1.478;2023-03-04T14:10:33;101925.94;;;12.11;100.00
24666;BME280;29726;53.532;-1.478;2023-03-04T14:13:16;101919.56;;;12.10;100.00
24666;BME280;29726;53.532;-1.478;2023-03-04T14:16:00;101925.38;;;12.16;100.00
24666;BME280;29726;53.532;-1.478;2023-03-04T14:18:45;101912.28;;;12.13;100.00
24666;BME280;29726;53.532;-1.478;2023-03-04T14:21:29;101917.31;;;12.18;100.00
24666;BME280;29726;53.532;-1.478;2023-03-04T14:24:17;101916.13;;;12.19;100.00
24666;BME280;29726;53.532;-1.478;2023-03-04T14:27:09;101908.06;;;12.21;100.00
24666;BME280;29726;53.532;-1.478;2023-03-04T14:29:59;101906.38;;;12.23;100.00
24666;BME280;29726;53.532;-1.478;2023-03-04T14:32:44;101906.72;;;12.25;100.00
24666;BME280;29726;53.532;-1.478;2023-03-04T14:35:30;101894.50;;;12.19;100.00
24666;BME280;29726;53.532;-1.478;2023-03-04T14:38:22;101896.88;;;12.21;100.00
24666;BME280;29726;53.532;-1.478;2023-03-04T14:41:13;101905.03;;;12.28;100.00
24666;BME280;29726;53.532;-1.478;2023-03-04T14:44:30;101897.78;;;12.30;100.00
24666;BME280;29726;53.532;-1.478;2023-03-04T14:47:38;101904.16;;;12.31;100.00
24666;BME280;29726;53.532;-1.478;2023-03-04T14:50:23;101896.97;;;12.30;100.00
24666;BME280;29726;53.532;-1.478;2023-03-04T14:56:07;101910.75;;;12.24;97.64
24666;BME280;29726;53.532;-1.478;2023-03-04T14:58:54;101899.41;;;12.15;99.40
24666;BME280;29726;53.532;-1.478;2023-03-04T15:01:40;101891.03;;;12.15;100.00
24666;BME280;29726;53.532;-1.478;2023-03-04T15:04:25;101890.94;;;12.19;100.00
24666;BME280;29726;53.532;-1.478;2023-03-04T15:07:23;101888.91;;;12.19;100.00
24666;BME280;29726;53.532;-1.478;2023-03-04T15:10:11;101892.38;;;12.23;100.00
24666;BME280;29726;53.532;-1.478;2023-03-04T15:13:00;101886.34;;;12.25;100.00
24666;BME280;29726;53.532;-1.478;2023-03-04T15:15:45;101874.34;;;12.24;100.00
24666;BME280;29726;53.532;-1.478;2023-03-04T15:18:30;101867.16;;;12.23;100.00
24666;BME280;29726;53.532;-1.478;2023-03-04T15:24:07;101878.50;;;12.32;100.00
24666;BME280;29726;53.532;-1.478;2023-03-04T15:26:51;101864.59;;;12.29;100.00